Monday, June 18, 2018, 8:53 PM EDT
Back to Local

KBDR, Sikorsky Memorial Airport

Location: Stratford, CT, United States Lat: 41.167
Local Time: 8:53 PM EDT ( 0:53 GMT) Lon: -73.133
Time Zone: US/Eastern Elev: 9 ft

Show me the last for .
Show Coded

Time T Td Feel RH Dir Speed Gust Alt SLP Vis Weather Sky Remarks
2018-06-18 20:29 78 68 81 71 300° 9 21 29.82 - 8 -TSRA FEW033 SCT045 BKN060 1-hr Precip Total: Trace
2018-06-18 20:09 75 64 78 68 230° 10 - 29.79 - 10 VCTS CLR None
2018-06-18 19:52 76 64 79 66 230° 12 - 29.80 29.80 10 CLR 6-hr Precip Total (8pm): 0.00"
6-hr Min Temp (8pm): 75.0°F
6-hr Max Temp (8pm): 84.0°F
2018-06-18 18:52 75 64 78 68 230° 10 - 29.79 29.79 10 CLR None
2018-06-18 17:52 76 65 79 68 260° 8 - 29.80 29.80 10 CLR None
2018-06-18 16:52 81 65 83 58 200° 22 29 29.83 29.83 10 CLR 6-hr Precip Total (5pm): 0.00"
2018-06-18 15:52 82 66 85 58 190° 21 - 29.85 29.85 10 CLR None
2018-06-18 14:52 82 67 85 60 190° 21 - 29.88 29.88 10 CLR 1-hr Precip Total: Trace
2018-06-18 13:52 84 67 87 56 190° 17 - 29.91 29.91 10 -RA CLR 1-hr Precip Total: Trace
6-hr Precip Total (2pm): 0.00"
6-hr Min Temp (2pm): 70.0°F
6-hr Max Temp (2pm): 84.9°F
2018-06-18 12:52 84 68 88 58 200° 16 - 29.94 29.94 10 CLR None
2018-06-18 11:52 82 68 85 62 210° 10 - 29.95 29.95 10 CLR None
2018-06-18 10:52 79 67 82 66 220° 9 - 29.97 29.97 10 CLR None
2018-06-18 09:52 76 66 79 71 230° 8 - 29.99 29.99 10 CLR None
2018-06-18 08:52 73 65 77 75 230° 7 - 30.01 30.01 10 CLR None
2018-06-18 07:52 70 64 - 81 220° 7 - 30.02 30.02 10 CLR 6-hr Min Temp (8am): 66.0°F
6-hr Max Temp (8am): 70.0°F
2018-06-18 06:52 69 63 - 80 230° 6 - 30.02 30.02 10 CLR None
2018-06-18 05:52 67 63 - 87 260° 3 - 30.04 30.04 10 CLR None
2018-06-18 04:52 67 62 - 84 250° 3 - 30.04 30.03 10 CLR None
2018-06-18 03:52 68 62 - 81 230° 5 - 30.04 30.03 10 CLR None
2018-06-18 02:52 67 62 - 84 - Calm - 30.05 30.05 10 CLR None
2018-06-18 01:52 67 62 - 84 - Calm - 30.06 30.06 10 CLR 6-hr Min Temp (2am): 66.9°F
6-hr Max Temp (2am): 77.0°F
2018-06-18 00:52 69 62 - 78 220° 5 - 30.07 30.06 10 CLR 24-hr Min Temp (1am): 57.9°F
24-hr Max Temp (1am): 86.0°F
2018-06-17 23:52 70 60 - 70 - Calm - 30.06 30.06 10 CLR None
2018-06-17 22:52 72 60 76 66 210° 5 - 30.06 30.06 10 CLR None
2018-06-17 21:52 73 59 77 61 210° 7 - 30.06 30.06 10 CLR None

Support USWX by starting your Amazon purchase here.